sensor_id;sensor_type;location;lat;lon;timestamp;P1;durP1;ratioP1;P2;durP2;ratioP2
2784;SDS011;57944;48.722;9.316;2022-12-05T00:00:41;28.23;;;11.10;;
2784;SDS011;57944;48.722;9.316;2022-12-05T00:03:11;28.53;;;12.03;;
2784;SDS011;57944;48.722;9.316;2022-12-05T00:05:41;27.40;;;12.83;;
2784;SDS011;57944;48.722;9.316;2022-12-05T00:08:11;20.87;;;11.50;;
2784;SDS011;57944;48.722;9.316;2022-12-05T00:10:44;27.73;;;11.97;;
2784;SDS011;57944;48.722;9.316;2022-12-05T00:13:14;28.60;;;12.00;;
2784;SDS011;57944;48.722;9.316;2022-12-05T00:15:44;21.83;;;11.07;;
2784;SDS011;57944;48.722;9.316;2022-12-05T00:18:14;28.17;;;13.40;;
2784;SDS011;57944;48.722;9.316;2022-12-05T00:20:44;23.50;;;12.57;;
2784;SDS011;57944;48.722;9.316;2022-12-05T00:23:14;20.97;;;10.50;;
2784;SDS011;57944;48.722;9.316;2022-12-05T00:25:47;22.97;;;11.83;;
2784;SDS011;57944;48.722;9.316;2022-12-05T00:28:18;21.63;;;11.90;;
2784;SDS011;57944;48.722;9.316;2022-12-05T00:30:48;20.97;;;11.47;;
2784;SDS011;57944;48.722;9.316;2022-12-05T00:33:18;23.80;;;11.80;;
2784;SDS011;57944;48.722;9.316;2022-12-05T00:35:48;26.97;;;12.60;;
2784;SDS011;57944;48.722;9.316;2022-12-05T00:38:18;22.87;;;11.50;;
2784;SDS011;57944;48.722;9.316;2022-12-05T00:40:50;24.97;;;11.83;;
2784;SDS011;57944;48.722;9.316;2022-12-05T00:43:20;21.90;;;12.00;;
2784;SDS011;57944;48.722;9.316;2022-12-05T00:45:50;26.27;;;13.10;;
2784;SDS011;57944;48.722;9.316;2022-12-05T00:48:20;22.93;;;12.37;;
2784;SDS011;57944;48.722;9.316;2022-12-05T00:50:58;21.10;;;10.67;;
2784;SDS011;57944;48.722;9.316;2022-12-05T00:53:30;24.47;;;11.83;;
2784;SDS011;57944;48.722;9.316;2022-12-05T00:56:03;20.57;;;11.70;;
2784;SDS011;57944;48.722;9.316;2022-12-05T00:58:36;22.47;;;11.53;;
2784;SDS011;57944;48.722;9.316;2022-12-05T01:01:08;20.23;;;10.13;;
2784;SDS011;57944;48.722;9.316;2022-12-05T01:03:42;23.70;;;10.97;;
2784;SDS011;57944;48.722;9.316;2022-12-05T01:06:13;20.30;;;10.83;;
2784;SDS011;57944;48.722;9.316;2022-12-05T01:08:44;22.27;;;10.57;;
2784;SDS011;57944;48.722;9.316;2022-12-05T01:11:17;18.80;;;10.23;;
2784;SDS011;57944;48.722;9.316;2022-12-05T01:13:49;22.27;;;11.27;;
2784;SDS011;57944;48.722;9.316;2022-12-05T01:16:20;24.43;;;12.30;;
2784;SDS011;57944;48.722;9.316;2022-12-05T01:18:54;24.00;;;10.50;;
2784;SDS011;57944;48.722;9.316;2022-12-05T01:21:26;22.30;;;11.80;;
2784;SDS011;57944;48.722;9.316;2022-12-05T01:23:56;22.77;;;10.07;;
2784;SDS011;57944;48.722;9.316;2022-12-05T01:26:29;30.10;;;13.67;;
2784;SDS011;57944;48.722;9.316;2022-12-05T01:28:59;28.73;;;13.70;;
2784;SDS011;57944;48.722;9.316;2022-12-05T01:31:30;22.80;;;11.27;;
2784;SDS011;57944;48.722;9.316;2022-12-05T01:34:03;22.67;;;10.87;;
2784;SDS011;57944;48.722;9.316;2022-12-05T01:36:36;23.63;;;12.03;;
2784;SDS011;57944;48.722;9.316;2022-12-05T01:39:08;24.40;;;11.47;;
2784;SDS011;57944;48.722;9.316;2022-12-05T01:41:43;22.67;;;11.23;;
2784;SDS011;57944;48.722;9.316;2022-12-05T01:47:31;19.97;;;9.73;;
2784;SDS011;57944;48.722;9.316;2022-12-05T01:50:04;21.80;;;10.73;;
2784;SDS011;57944;48.722;9.316;2022-12-05T01:52:38;23.10;;;11.73;;
2784;SDS011;57944;48.722;9.316;2022-12-05T01:55:10;21.87;;;10.70;;
2784;SDS011;57944;48.722;9.316;2022-12-05T01:57:47;22.03;;;10.60;;
2784;SDS011;57944;48.722;9.316;2022-12-05T02:00:18;17.23;;;10.30;;
2784;SDS011;57944;48.722;9.316;2022-12-05T02:02:51;25.23;;;11.47;;
2784;SDS011;57944;48.722;9.316;2022-12-05T02:05:25;19.10;;;9.43;;
2784;SDS011;57944;48.722;9.316;2022-12-05T02:08:00;22.70;;;11.45;;
2784;SDS011;57944;48.722;9.316;2022-12-05T02:10:34;32.97;;;13.47;;
2784;SDS011;57944;48.722;9.316;2022-12-05T02:13:14;23.40;;;10.30;;
2784;SDS011;57944;48.722;9.316;2022-12-05T02:16:10;22.80;;;10.20;;
2784;SDS011;57944;48.722;9.316;2022-12-05T02:18:52;23.07;;;12.20;;
2784;SDS011;57944;48.722;9.316;2022-12-05T02:21:43;23.17;;;10.60;;
2784;SDS011;57944;48.722;9.316;2022-12-05T02:28:04;28.03;;;11.83;;
2784;SDS011;57944;48.722;9.316;2022-12-05T02:31:14;26.00;;;10.60;;
2784;SDS011;57944;48.722;9.316;2022-12-05T02:33:55;18.10;;;10.20;;
2784;SDS011;57944;48.722;9.316;2022-12-05T02:36:36;25.97;;;11.53;;
2784;SDS011;57944;48.722;9.316;2022-12-05T02:39:14;23.43;;;11.20;;
2784;SDS011;57944;48.722;9.316;2022-12-05T02:42:02;26.17;;;12.63;;
2784;SDS011;57944;48.722;9.316;2022-12-05T02:44:42;23.53;;;12.03;;
2784;SDS011;57944;48.722;9.316;2022-12-05T02:47:21;25.60;;;11.17;;
2784;SDS011;57944;48.722;9.316;2022-12-05T02:49:56;26.97;;;14.50;;
2784;SDS011;57944;48.722;9.316;2022-12-05T02:52:27;30.37;;;12.90;;
2784;SDS011;57944;48.722;9.316;2022-12-05T02:55:01;22.03;;;11.63;;
2784;SDS011;57944;48.722;9.316;2022-12-05T02:57:35;23.77;;;11.50;;
2784;SDS011;57944;48.722;9.316;2022-12-05T03:00:08;26.27;;;13.13;;
2784;SDS011;57944;48.722;9.316;2022-12-05T03:02:42;21.90;;;10.97;;
2784;SDS011;57944;48.722;9.316;2022-12-05T03:05:14;28.40;;;11.80;;
2784;SDS011;57944;48.722;9.316;2022-12-05T03:07:51;30.80;;;12.43;;
2784;SDS011;57944;48.722;9.316;2022-12-05T03:10:26;24.13;;;10.53;;
2784;SDS011;57944;48.722;9.316;2022-12-05T03:13:03;26.37;;;11.50;;
2784;SDS011;57944;48.722;9.316;2022-12-05T03:15:40;19.70;;;10.37;;
2784;SDS011;57944;48.722;9.316;2022-12-05T03:18:19;30.30;;;13.70;;
2784;SDS011;57944;48.722;9.316;2022-12-05T03:20:56;19.73;;;11.23;;
2784;SDS011;57944;48.722;9.316;2022-12-05T03:23:31;24.97;;;11.80;;
2784;SDS011;57944;48.722;9.316;2022-12-05T03:26:08;29.80;;;12.87;;
2784;SDS011;57944;48.722;9.316;2022-12-05T03:28:52;23.20;;;13.73;;
2784;SDS011;57944;48.722;9.316;2022-12-05T03:31:36;21.77;;;11.57;;
2784;SDS011;57944;48.722;9.316;2022-12-05T03:34:16;24.57;;;12.20;;
2784;SDS011;57944;48.722;9.316;2022-12-05T03:36:58;22.33;;;12.00;;
2784;SDS011;57944;48.722;9.316;2022-12-05T03:39:36;26.43;;;12.57;;
2784;SDS011;57944;48.722;9.316;2022-12-05T03:42:17;28.17;;;14.63;;
2784;SDS011;57944;48.722;9.316;2022-12-05T03:44:58;22.80;;;10.80;;
2784;SDS011;57944;48.722;9.316;2022-12-05T03:47:37;26.00;;;13.17;;
2784;SDS011;57944;48.722;9.316;2022-12-05T03:50:21;22.20;;;11.47;;
2784;SDS011;57944;48.722;9.316;2022-12-05T03:52:56;21.00;;;9.63;;
2784;SDS011;57944;48.722;9.316;2022-12-05T03:55:50;26.87;;;12.80;;
2784;SDS011;57944;48.722;9.316;2022-12-05T03:58:29;25.80;;;13.87;;
2784;SDS011;57944;48.722;9.316;2022-12-05T04:01:05;29.70;;;11.90;;
2784;SDS011;57944;48.722;9.316;2022-12-05T04:03:41;29.90;;;12.30;;
2784;SDS011;57944;48.722;9.316;2022-12-05T04:06:20;28.23;;;10.67;;
2784;SDS011;57944;48.722;9.316;2022-12-05T04:08:57;25.50;;;11.47;;
2784;SDS011;57944;48.722;9.316;2022-12-05T04:11:39;22.80;;;11.10;;
2784;SDS011;57944;48.722;9.316;2022-12-05T04:14:16;22.27;;;10.80;;
2784;SDS011;57944;48.722;9.316;2022-12-05T04:16:54;22.30;;;10.57;;
2784;SDS011;57944;48.722;9.316;2022-12-05T04:19:30;24.27;;;11.70;;
2784;SDS011;57944;48.722;9.316;2022-12-05T04:22:24;20.90;;;10.50;;
2784;SDS011;57944;48.722;9.316;2022-12-05T04:24:56;22.23;;;10.63;;
2784;SDS011;57944;48.722;9.316;2022-12-05T04:27:57;21.90;;;11.07;;
2784;SDS011;57944;48.722;9.316;2022-12-05T04:30:36;25.27;;;13.07;;
2784;SDS011;57944;48.722;9.316;2022-12-05T04:33:12;26.07;;;12.00;;
2784;SDS011;57944;48.722;9.316;2022-12-05T04:35:51;26.40;;;11.77;;
2784;SDS011;57944;48.722;9.316;2022-12-05T04:38:28;22.77;;;12.10;;
2784;SDS011;57944;48.722;9.316;2022-12-05T04:41:08;20.93;;;11.97;;
2784;SDS011;57944;48.722;9.316;2022-12-05T04:43:45;20.73;;;11.00;;
2784;SDS011;57944;48.722;9.316;2022-12-05T04:46:19;29.37;;;12.27;;
2784;SDS011;57944;48.722;9.316;2022-12-05T04:48:54;22.30;;;13.33;;
2784;SDS011;57944;48.722;9.316;2022-12-05T04:51:32;28.70;;;10.90;;
2784;SDS011;57944;48.722;9.316;2022-12-05T04:54:09;30.40;;;14.03;;
2784;SDS011;57944;48.722;9.316;2022-12-05T04:56:44;36.63;;;12.60;;
2784;SDS011;57944;48.722;9.316;2022-12-05T04:59:26;25.63;;;15.93;;
2784;SDS011;57944;48.722;9.316;2022-12-05T05:01:59;34.93;;;13.80;;
2784;SDS011;57944;48.722;9.316;2022-12-05T05:04:37;24.50;;;12.37;;
2784;SDS011;57944;48.722;9.316;2022-12-05T05:07:12;29.30;;;12.77;;
2784;SDS011;57944;48.722;9.316;2022-12-05T05:09:46;25.30;;;13.40;;
2784;SDS011;57944;48.722;9.316;2022-12-05T05:12:16;31.47;;;12.13;;
2784;SDS011;57944;48.722;9.316;2022-12-05T05:14:47;25.90;;;11.57;;
2784;SDS011;57944;48.722;9.316;2022-12-05T05:17:17;27.63;;;12.27;;
2784;SDS011;57944;48.722;9.316;2022-12-05T05:19:47;27.37;;;10.70;;
2784;SDS011;57944;48.722;9.316;2022-12-05T05:22:42;26.67;;;12.67;;
2784;SDS011;57944;48.722;9.316;2022-12-05T05:25:14;27.27;;;13.30;;
2784;SDS011;57944;48.722;9.316;2022-12-05T05:27:46;27.03;;;12.90;;
2784;SDS011;57944;48.722;9.316;2022-12-05T05:30:19;22.40;;;12.40;;
2784;SDS011;57944;48.722;9.316;2022-12-05T05:32:51;34.50;;;14.30;;
2784;SDS011;57944;48.722;9.316;2022-12-05T05:35:21;26.20;;;12.17;;
2784;SDS011;57944;48.722;9.316;2022-12-05T05:37:51;21.53;;;12.17;;
2784;SDS011;57944;48.722;9.316;2022-12-05T05:40:24;23.23;;;12.37;;
2784;SDS011;57944;48.722;9.316;2022-12-05T05:42:54;25.77;;;13.93;;
2784;SDS011;57944;48.722;9.316;2022-12-05T05:45:24;31.07;;;13.67;;
2784;SDS011;57944;48.722;9.316;2022-12-05T05:47:54;27.00;;;14.10;;
2784;SDS011;57944;48.722;9.316;2022-12-05T05:50:24;28.40;;;13.47;;
2784;SDS011;57944;48.722;9.316;2022-12-05T05:52:54;33.80;;;13.37;;
2784;SDS011;57944;48.722;9.316;2022-12-05T05:55:27;26.87;;;13.17;;
2784;SDS011;57944;48.722;9.316;2022-12-05T05:57:57;23.90;;;12.87;;
2784;SDS011;57944;48.722;9.316;2022-12-05T06:00:27;23.80;;;13.23;;
2784;SDS011;57944;48.722;9.316;2022-12-05T06:02:57;21.73;;;11.67;;
2784;SDS011;57944;48.722;9.316;2022-12-05T06:05:27;23.77;;;11.90;;
2784;SDS011;57944;48.722;9.316;2022-12-05T06:07:57;25.70;;;12.23;;
2784;SDS011;57944;48.722;9.316;2022-12-05T06:10:30;29.63;;;13.17;;
2784;SDS011;57944;48.722;9.316;2022-12-05T06:13:00;22.10;;;12.33;;
2784;SDS011;57944;48.722;9.316;2022-12-05T06:15:30;28.70;;;12.43;;
2784;SDS011;57944;48.722;9.316;2022-12-05T06:18:00;21.67;;;11.70;;
2784;SDS011;57944;48.722;9.316;2022-12-05T06:20:30;21.00;;;11.53;;
2784;SDS011;57944;48.722;9.316;2022-12-05T06:23:00;22.73;;;13.70;;
2784;SDS011;57944;48.722;9.316;2022-12-05T06:25:33;37.43;;;14.80;;
2784;SDS011;57944;48.722;9.316;2022-12-05T06:28:03;24.27;;;10.97;;
2784;SDS011;57944;48.722;9.316;2022-12-05T06:30:33;23.60;;;13.53;;
2784;SDS011;57944;48.722;9.316;2022-12-05T06:33:06;24.53;;;11.93;;
2784;SDS011;57944;48.722;9.316;2022-12-05T06:35:37;25.47;;;13.40;;
2784;SDS011;57944;48.722;9.316;2022-12-05T06:38:08;26.80;;;13.13;;
2784;SDS011;57944;48.722;9.316;2022-12-05T06:40:42;29.07;;;14.40;;
2784;SDS011;57944;48.722;9.316;2022-12-05T06:43:13;24.23;;;13.20;;
2784;SDS011;57944;48.722;9.316;2022-12-05T06:45:43;22.03;;;12.73;;
2784;SDS011;57944;48.722;9.316;2022-12-05T06:48:13;25.63;;;11.47;;
2784;SDS011;57944;48.722;9.316;2022-12-05T06:50:47;24.90;;;11.80;;
2784;SDS011;57944;48.722;9.316;2022-12-05T06:53:19;27.90;;;13.20;;
2784;SDS011;57944;48.722;9.316;2022-12-05T06:55:58;20.50;;;11.00;;
2784;SDS011;57944;48.722;9.316;2022-12-05T06:58:31;30.63;;;12.53;;
2784;SDS011;57944;48.722;9.316;2022-12-05T07:01:01;27.07;;;13.47;;
2784;SDS011;57944;48.722;9.316;2022-12-05T07:03:44;27.77;;;13.27;;
2784;SDS011;57944;48.722;9.316;2022-12-05T07:06:16;24.90;;;12.60;;
2784;SDS011;57944;48.722;9.316;2022-12-05T07:08:46;24.23;;;13.80;;
2784;SDS011;57944;48.722;9.316;2022-12-05T07:11:19;22.90;;;11.93;;
2784;SDS011;57944;48.722;9.316;2022-12-05T07:13:49;18.90;;;11.23;;
2784;SDS011;57944;48.722;9.316;2022-12-05T07:16:19;24.43;;;12.30;;
2784;SDS011;57944;48.722;9.316;2022-12-05T07:18:49;26.23;;;12.30;;
2784;SDS011;57944;48.722;9.316;2022-12-05T07:21:19;25.60;;;12.50;;
2784;SDS011;57944;48.722;9.316;2022-12-05T07:23:50;25.73;;;13.47;;
2784;SDS011;57944;48.722;9.316;2022-12-05T07:26:23;32.10;;;14.90;;
2784;SDS011;57944;48.722;9.316;2022-12-05T07:28:54;22.70;;;11.90;;
2784;SDS011;57944;48.722;9.316;2022-12-05T07:31:25;23.83;;;13.70;;
2784;SDS011;57944;48.722;9.316;2022-12-05T07:33:55;23.80;;;10.80;;
2784;SDS011;57944;48.722;9.316;2022-12-05T07:36:26;21.23;;;11.53;;
2784;SDS011;57944;48.722;9.316;2022-12-05T07:38:56;20.87;;;12.40;;
2784;SDS011;57944;48.722;9.316;2022-12-05T07:41:30;18.17;;;11.43;;
2784;SDS011;57944;48.722;9.316;2022-12-05T07:44:05;24.27;;;11.70;;
2784;SDS011;57944;48.722;9.316;2022-12-05T07:46:38;21.70;;;10.93;;
2784;SDS011;57944;48.722;9.316;2022-12-05T07:49:09;27.20;;;12.20;;
2784;SDS011;57944;48.722;9.316;2022-12-05T07:51:41;22.77;;;13.40;;
2784;SDS011;57944;48.722;9.316;2022-12-05T07:54:11;28.43;;;14.67;;
2784;SDS011;57944;48.722;9.316;2022-12-05T07:56:43;20.00;;;12.17;;
2784;SDS011;57944;48.722;9.316;2022-12-05T07:59:13;23.03;;;11.63;;
2784;SDS011;57944;48.722;9.316;2022-12-05T08:01:43;22.60;;;10.67;;
2784;SDS011;57944;48.722;9.316;2022-12-05T08:04:14;21.07;;;10.90;;
2784;SDS011;57944;48.722;9.316;2022-12-05T08:06:44;20.90;;;10.80;;
2784;SDS011;57944;48.722;9.316;2022-12-05T08:09:14;23.07;;;11.00;;
2784;SDS011;57944;48.722;9.316;2022-12-05T08:11:47;25.30;;;11.57;;
2784;SDS011;57944;48.722;9.316;2022-12-05T08:14:18;23.20;;;11.47;;
2784;SDS011;57944;48.722;9.316;2022-12-05T08:16:49;16.00;;;9.57;;
2784;SDS011;57944;48.722;9.316;2022-12-05T08:19:19;18.40;;;11.30;;
2784;SDS011;57944;48.722;9.316;2022-12-05T08:21:49;22.47;;;11.37;;
2784;SDS011;57944;48.722;9.316;2022-12-05T08:24:22;24.03;;;12.23;;
2784;SDS011;57944;48.722;9.316;2022-12-05T08:26:55;16.73;;;12.03;;
2784;SDS011;57944;48.722;9.316;2022-12-05T08:29:25;18.13;;;10.60;;
2784;SDS011;57944;48.722;9.316;2022-12-05T08:31:55;20.27;;;11.30;;
2784;SDS011;57944;48.722;9.316;2022-12-05T08:34:25;15.97;;;9.57;;
2784;SDS011;57944;48.722;9.316;2022-12-05T08:36:56;18.20;;;11.10;;
2784;SDS011;57944;48.722;9.316;2022-12-05T08:39:26;18.93;;;10.80;;
2784;SDS011;57944;48.722;9.316;2022-12-05T08:42:06;20.10;;;10.17;;
2784;SDS011;57944;48.722;9.316;2022-12-05T08:44:36;18.23;;;11.40;;
2784;SDS011;57944;48.722;9.316;2022-12-05T08:47:06;19.73;;;11.80;;
2784;SDS011;57944;48.722;9.316;2022-12-05T08:49:36;22.37;;;9.50;;
2784;SDS011;57944;48.722;9.316;2022-12-05T08:52:06;19.03;;;11.20;;
2784;SDS011;57944;48.722;9.316;2022-12-05T08:54:36;18.57;;;10.03;;
2784;SDS011;57944;48.722;9.316;2022-12-05T08:57:09;17.47;;;10.07;;
2784;SDS011;57944;48.722;9.316;2022-12-05T08:59:39;17.10;;;9.40;;
2784;SDS011;57944;48.722;9.316;2022-12-05T09:02:09;14.90;;;9.40;;
2784;SDS011;57944;48.722;9.316;2022-12-05T09:04:39;19.23;;;9.70;;
2784;SDS011;57944;48.722;9.316;2022-12-05T09:07:13;17.77;;;10.40;;
2784;SDS011;57944;48.722;9.316;2022-12-05T09:09:43;18.80;;;10.87;;
2784;SDS011;57944;48.722;9.316;2022-12-05T09:12:16;14.77;;;10.40;;
2784;SDS011;57944;48.722;9.316;2022-12-05T09:14:46;24.90;;;11.73;;
2784;SDS011;57944;48.722;9.316;2022-12-05T09:17:16;17.23;;;10.67;;
2784;SDS011;57944;48.722;9.316;2022-12-05T09:19:49;17.70;;;9.40;;
2784;SDS011;57944;48.722;9.316;2022-12-05T09:22:20;23.33;;;12.67;;
2784;SDS011;57944;48.722;9.316;2022-12-05T09:24:50;15.03;;;10.23;;
2784;SDS011;57944;48.722;9.316;2022-12-05T09:27:23;19.13;;;10.53;;
2784;SDS011;57944;48.722;9.316;2022-12-05T09:29:53;16.30;;;9.90;;
2784;SDS011;57944;48.722;9.316;2022-12-05T09:32:24;21.43;;;10.40;;
2784;SDS011;57944;48.722;9.316;2022-12-05T09:34:55;15.40;;;9.10;;
2784;SDS011;57944;48.722;9.316;2022-12-05T09:37:25;15.93;;;9.60;;
2784;SDS011;57944;48.722;9.316;2022-12-05T09:40:05;15.97;;;8.80;;
2784;SDS011;57944;48.722;9.316;2022-12-05T09:42:51;13.40;;;9.43;;
2784;SDS011;57944;48.722;9.316;2022-12-05T09:45:32;16.23;;;8.40;;
2784;SDS011;57944;48.722;9.316;2022-12-05T09:48:09;13.60;;;9.40;;
2784;SDS011;57944;48.722;9.316;2022-12-05T09:50:44;16.10;;;8.93;;
2784;SDS011;57944;48.722;9.316;2022-12-05T09:53:23;15.50;;;8.30;;
2784;SDS011;57944;48.722;9.316;2022-12-05T09:55:59;12.00;;;8.07;;
2784;SDS011;57944;48.722;9.316;2022-12-05T09:58:40;19.40;;;11.10;;
2784;SDS011;57944;48.722;9.316;2022-12-05T10:01:22;28.10;;;9.80;;
2784;SDS011;57944;48.722;9.316;2022-12-05T10:04:13;16.20;;;8.90;;
2784;SDS011;57944;48.722;9.316;2022-12-05T10:07:00;16.83;;;9.47;;
2784;SDS011;57944;48.722;9.316;2022-12-05T10:09:59;13.83;;;8.60;;
2784;SDS011;57944;48.722;9.316;2022-12-05T10:12:52;17.00;;;9.73;;
2784;SDS011;57944;48.722;9.316;2022-12-05T10:15:51;19.73;;;9.47;;
2784;SDS011;57944;48.722;9.316;2022-12-05T10:18:27;17.97;;;9.00;;
2784;SDS011;57944;48.722;9.316;2022-12-05T10:21:08;13.97;;;8.67;;
2784;SDS011;57944;48.722;9.316;2022-12-05T10:23:52;16.47;;;10.90;;
2784;SDS011;57944;48.722;9.316;2022-12-05T10:26:26;16.17;;;9.37;;
2784;SDS011;57944;48.722;9.316;2022-12-05T10:29:02;14.13;;;8.67;;
2784;SDS011;57944;48.722;9.316;2022-12-05T10:31:53;16.80;;;10.30;;
2784;SDS011;57944;48.722;9.316;2022-12-05T10:34:37;17.30;;;9.43;;
2784;SDS011;57944;48.722;9.316;2022-12-05T10:37:13;20.60;;;8.80;;
2784;SDS011;57944;48.722;9.316;2022-12-05T10:39:46;18.50;;;10.20;;
2784;SDS011;57944;48.722;9.316;2022-12-05T10:42:20;16.63;;;9.90;;
2784;SDS011;57944;48.722;9.316;2022-12-05T10:44:57;17.30;;;9.13;;
2784;SDS011;57944;48.722;9.316;2022-12-05T10:47:34;14.17;;;9.23;;
2784;SDS011;57944;48.722;9.316;2022-12-05T10:50:06;24.67;;;9.83;;
2784;SDS011;57944;48.722;9.316;2022-12-05T10:52:48;18.70;;;10.47;;
2784;SDS011;57944;48.722;9.316;2022-12-05T10:55:21;19.93;;;9.73;;
2784;SDS011;57944;48.722;9.316;2022-12-05T10:58:10;18.23;;;8.83;;
2784;SDS011;57944;48.722;9.316;2022-12-05T11:00:43;15.40;;;9.73;;
2784;SDS011;57944;48.722;9.316;2022-12-05T11:03:24;15.10;;;8.57;;
2784;SDS011;57944;48.722;9.316;2022-12-05T11:05:58;11.47;;;9.00;;
2784;SDS011;57944;48.722;9.316;2022-12-05T11:08:31;15.87;;;10.70;;
2784;SDS011;57944;48.722;9.316;2022-12-05T11:11:23;16.40;;;9.83;;
2784;SDS011;57944;48.722;9.316;2022-12-05T11:13:59;17.43;;;9.63;;
2784;SDS011;57944;48.722;9.316;2022-12-05T11:16:51;15.97;;;9.37;;
2784;SDS011;57944;48.722;9.316;2022-12-05T11:19:28;16.47;;;10.03;;
2784;SDS011;57944;48.722;9.316;2022-12-05T11:22:01;15.07;;;10.17;;
2784;SDS011;57944;48.722;9.316;2022-12-05T11:24:34;19.70;;;10.63;;
2784;SDS011;57944;48.722;9.316;2022-12-05T11:27:19;18.93;;;10.37;;
2784;SDS011;57944;48.722;9.316;2022-12-05T11:29:57;15.90;;;10.90;;
2784;SDS011;57944;48.722;9.316;2022-12-05T11:32:31;18.17;;;10.57;;
2784;SDS011;57944;48.722;9.316;2022-12-05T11:35:06;18.07;;;9.40;;
2784;SDS011;57944;48.722;9.316;2022-12-05T11:37:54;24.60;;;10.60;;
2784;SDS011;57944;48.722;9.316;2022-12-05T11:40:29;20.80;;;10.50;;
2784;SDS011;57944;48.722;9.316;2022-12-05T11:43:14;13.93;;;9.70;;
2784;SDS011;57944;48.722;9.316;2022-12-05T11:46:05;13.60;;;9.00;;
2784;SDS011;57944;48.722;9.316;2022-12-05T11:48:57;14.07;;;9.17;;
2784;SDS011;57944;48.722;9.316;2022-12-05T11:51:48;12.43;;;8.40;;
2784;SDS011;57944;48.722;9.316;2022-12-05T11:57:53;18.30;;;10.33;;
2784;SDS011;57944;48.722;9.316;2022-12-05T12:00:40;14.80;;;9.70;;
2784;SDS011;57944;48.722;9.316;2022-12-05T12:03:41;13.80;;;8.27;;
2784;SDS011;57944;48.722;9.316;2022-12-05T12:06:42;14.17;;;10.87;;
2784;SDS011;57944;48.722;9.316;2022-12-05T12:09:40;14.53;;;9.23;;
2784;SDS011;57944;48.722;9.316;2022-12-05T12:12:21;15.00;;;9.40;;
2784;SDS011;57944;48.722;9.316;2022-12-05T12:15:06;16.57;;;9.77;;
2784;SDS011;57944;48.722;9.316;2022-12-05T12:18:14;16.00;;;9.90;;
2784;SDS011;57944;48.722;9.316;2022-12-05T12:21:04;16.87;;;10.70;;
2784;SDS011;57944;48.722;9.316;2022-12-05T12:23:55;15.33;;;10.90;;
2784;SDS011;57944;48.722;9.316;2022-12-05T12:26:40;16.73;;;10.57;;
2784;SDS011;57944;48.722;9.316;2022-12-05T12:29:26;16.10;;;9.03;;
2784;SDS011;57944;48.722;9.316;2022-12-05T12:32:20;13.83;;;9.70;;
2784;SDS011;57944;48.722;9.316;2022-12-05T12:35:06;15.57;;;9.70;;
2784;SDS011;57944;48.722;9.316;2022-12-05T12:41:17;19.33;;;10.00;;
2784;SDS011;57944;48.722;9.316;2022-12-05T12:44:06;18.70;;;10.60;;
2784;SDS011;57944;48.722;9.316;2022-12-05T12:47:06;15.00;;;9.33;;
2784;SDS011;57944;48.722;9.316;2022-12-05T12:49:50;16.40;;;9.83;;
2784;SDS011;57944;48.722;9.316;2022-12-05T12:52:35;9.63;;;4.80;;
2784;SDS011;57944;48.722;9.316;2022-12-05T12:55:23;8.00;;;3.33;;
2784;SDS011;57944;48.722;9.316;2022-12-05T12:58:10;5.53;;;3.73;;
2784;SDS011;57944;48.722;9.316;2022-12-05T13:00:57;7.33;;;3.50;;
2784;SDS011;57944;48.722;9.316;2022-12-05T13:03:40;6.53;;;3.90;;
2784;SDS011;57944;48.722;9.316;2022-12-05T13:06:18;6.50;;;4.33;;
2784;SDS011;57944;48.722;9.316;2022-12-05T13:08:57;8.17;;;4.30;;
2784;SDS011;57944;48.722;9.316;2022-12-05T13:11:34;8.33;;;3.37;;
2784;SDS011;57944;48.722;9.316;2022-12-05T13:14:13;6.80;;;4.07;;
2784;SDS011;57944;48.722;9.316;2022-12-05T13:16:50;4.17;;;3.20;;
2784;SDS011;57944;48.722;9.316;2022-12-05T13:19:25;5.70;;;3.30;;
2784;SDS011;57944;48.722;9.316;2022-12-05T13:22:02;5.57;;;3.63;;
2784;SDS011;57944;48.722;9.316;2022-12-05T13:24:35;6.70;;;3.60;;
2784;SDS011;57944;48.722;9.316;2022-12-05T13:27:08;5.60;;;4.27;;
2784;SDS011;57944;48.722;9.316;2022-12-05T13:29:50;6.33;;;4.10;;
2784;SDS011;57944;48.722;9.316;2022-12-05T13:32:25;6.30;;;4.37;;
2784;SDS011;57944;48.722;9.316;2022-12-05T13:35:00;6.10;;;3.93;;
2784;SDS011;57944;48.722;9.316;2022-12-05T13:37:43;9.00;;;3.87;;
2784;SDS011;57944;48.722;9.316;2022-12-05T13:40:29;5.80;;;3.80;;
2784;SDS011;57944;48.722;9.316;2022-12-05T13:43:16;6.30;;;3.90;;
2784;SDS011;57944;48.722;9.316;2022-12-05T13:46:03;7.73;;;3.80;;
2784;SDS011;57944;48.722;9.316;2022-12-05T13:48:40;6.23;;;3.40;;
2784;SDS011;57944;48.722;9.316;2022-12-05T13:51:19;4.70;;;2.70;;
2784;SDS011;57944;48.722;9.316;2022-12-05T13:53:57;4.07;;;2.80;;
2784;SDS011;57944;48.722;9.316;2022-12-05T13:56:46;5.70;;;3.10;;
2784;SDS011;57944;48.722;9.316;2022-12-05T14:02:50;4.87;;;2.90;;
2784;SDS011;57944;48.722;9.316;2022-12-05T14:05:36;5.03;;;2.90;;
2784;SDS011;57944;48.722;9.316;2022-12-05T14:11:22;5.07;;;3.00;;
2784;SDS011;57944;48.722;9.316;2022-12-05T14:13:52;4.30;;;3.00;;
2784;SDS011;57944;48.722;9.316;2022-12-05T14:25:42;5.20;;;3.50;;
2784;SDS011;57944;48.722;9.316;2022-12-05T14:28:41;5.67;;;3.00;;
2784;SDS011;57944;48.722;9.316;2022-12-05T14:31:37;5.53;;;2.97;;
2784;SDS011;57944;48.722;9.316;2022-12-05T14:34:30;5.53;;;3.20;;
2784;SDS011;57944;48.722;9.316;2022-12-05T14:37:06;5.43;;;3.80;;
2784;SDS011;57944;48.722;9.316;2022-12-05T14:39:54;5.37;;;2.40;;
2784;SDS011;57944;48.722;9.316;2022-12-05T14:42:35;5.67;;;3.53;;
2784;SDS011;57944;48.722;9.316;2022-12-05T14:45:21;6.80;;;4.13;;
2784;SDS011;57944;48.722;9.316;2022-12-05T14:48:00;4.47;;;2.90;;
2784;SDS011;57944;48.722;9.316;2022-12-05T14:50:38;8.43;;;4.57;;
2784;SDS011;57944;48.722;9.316;2022-12-05T14:53:21;4.90;;;3.17;;
2784;SDS011;57944;48.722;9.316;2022-12-05T14:56:12;4.60;;;3.17;;
2784;SDS011;57944;48.722;9.316;2022-12-05T14:58:49;5.93;;;3.40;;
2784;SDS011;57944;48.722;9.316;2022-12-05T15:01:25;9.63;;;3.10;;
2784;SDS011;57944;48.722;9.316;2022-12-05T15:04:14;3.87;;;1.80;;
2784;SDS011;57944;48.722;9.316;2022-12-05T15:06:52;4.23;;;2.50;;
2784;SDS011;57944;48.722;9.316;2022-12-05T15:09:39;4.63;;;2.80;;
2784;SDS011;57944;48.722;9.316;2022-12-05T15:12:24;8.73;;;3.30;;
2784;SDS011;57944;48.722;9.316;2022-12-05T15:15:01;4.27;;;2.47;;
2784;SDS011;57944;48.722;9.316;2022-12-05T15:17:44;5.00;;;2.53;;
2784;SDS011;57944;48.722;9.316;2022-12-05T15:20:21;4.60;;;2.13;;
2784;SDS011;57944;48.722;9.316;2022-12-05T15:26:22;4.10;;;2.33;;
2784;SDS011;57944;48.722;9.316;2022-12-05T15:29:13;8.53;;;4.70;;
2784;SDS011;57944;48.722;9.316;2022-12-05T15:31:52;12.30;;;6.27;;
2784;SDS011;57944;48.722;9.316;2022-12-05T15:34:24;16.37;;;8.03;;
2784;SDS011;57944;48.722;9.316;2022-12-05T15:37:02;16.20;;;9.37;;
2784;SDS011;57944;48.722;9.316;2022-12-05T15:39:54;15.20;;;9.40;;
2784;SDS011;57944;48.722;9.316;2022-12-05T15:42:30;24.30;;;11.63;;
2784;SDS011;57944;48.722;9.316;2022-12-05T15:45:16;16.03;;;9.70;;
2784;SDS011;57944;48.722;9.316;2022-12-05T15:47:53;21.60;;;11.30;;
2784;SDS011;57944;48.722;9.316;2022-12-05T15:50:29;19.00;;;11.03;;
2784;SDS011;57944;48.722;9.316;2022-12-05T15:53:08;18.40;;;10.83;;
2784;SDS011;57944;48.722;9.316;2022-12-05T15:55:46;19.07;;;11.40;;
2784;SDS011;57944;48.722;9.316;2022-12-05T15:58:26;21.90;;;11.27;;
2784;SDS011;57944;48.722;9.316;2022-12-05T16:01:04;19.83;;;12.20;;
2784;SDS011;57944;48.722;9.316;2022-12-05T16:03:42;22.10;;;10.90;;
2784;SDS011;57944;48.722;9.316;2022-12-05T16:06:21;21.80;;;14.50;;
2784;SDS011;57944;48.722;9.316;2022-12-05T16:08:58;30.10;;;11.90;;
2784;SDS011;57944;48.722;9.316;2022-12-05T16:11:48;19.33;;;11.50;;